Time;durP1;ratioP1;P1;durP2;ratioP2;P2;SDS_P1;SDS_P2;PMS_P1;PMS_P2;Temp;Humidity;BMP_temperature;BMP_pressure;BME280_temperature;BME280_humidity;BME280_pressure;Samples;Min_cycle;Max_cycle;Signal;HPM_P1;HPM_P2
2021/11/28 00:00:04;;;;;;;72.55;11.95;;;;;;;;;;5088447;28;20236;-65
2021/11/28 00:02:34;;;;;;;73.13;12.15;;;;;;;;;;5088140;28;20319;-65
2021/11/28 00:05:02;;;;;;;71.55;12.70;;;;;;;;;;5088180;28;20282;-64
2021/11/28 00:07:43;;;;;;;70.22;12.25;;;;;;;;;;5087873;28;20557;-65
2021/11/28 00:10:16;;;;;;;71.15;12.20;;;;;;;;;;5088471;28;20247;-64
2021/11/28 00:12:45;;;;;;;73.45;12.40;;;;;;;;;;5085468;28;20300;-65
2021/11/28 00:15:13;;;;;;;73.00;11.25;;;;;;;;;;5074622;28;20234;-64
2021/11/28 00:17:40;;;;;;;70.10;11.93;;;;;;;;;;5074226;28;20211;-65
2021/11/28 00:20:11;;;;;;;72.13;11.75;;;;;;;;;;5074431;28;20596;-64
2021/11/28 00:22:39;;;;;;;73.53;12.40;;;;;;;;;;5074573;28;20677;-65
2021/11/28 00:25:08;;;;;;;77.35;13.52;;;;;;;;;;5074442;28;20228;-67
2021/11/28 00:27:36;;;;;;;74.47;12.70;;;;;;;;;;5074254;28;20208;-68
2021/11/28 00:30:04;;;;;;;72.47;13.00;;;;;;;;;;5074430;28;20201;-67
2021/11/28 00:32:31;;;;;;;72.72;13.10;;;;;;;;;;5074238;28;20672;-67
2021/11/28 00:34:59;;;;;;;71.53;12.40;;;;;;;;;;5074314;28;20215;-67
2021/11/28 00:37:26;;;;;;;69.18;11.70;;;;;;;;;;5074141;28;20205;-67
2021/11/28 00:39:53;;;;;;;74.85;12.95;;;;;;;;;;5074194;28;20232;-67
2021/11/28 00:42:20;;;;;;;87.35;17.35;;;;;;;;;;5074045;28;20217;-68
2021/11/28 00:44:48;;;;;;;94.80;19.65;;;;;;;;;;5074064;28;20205;-67
2021/11/28 00:47:16;;;;;;;86.82;16.67;;;;;;;;;;5073664;28;20212;-67
2021/11/28 00:49:51;;;;;;;77.45;13.23;;;;;;;;;;5074101;28;20229;-67
2021/11/28 00:52:18;;;;;;;72.75;12.13;;;;;;;;;;5074125;28;20201;-67
2021/11/28 00:54:46;;;;;;;79.50;13.77;;;;;;;;;;5073781;28;20211;-67
2021/11/28 00:57:14;;;;;;;72.85;13.15;;;;;;;;;;5073631;28;20216;-67
2021/11/28 00:59:41;;;;;;;73.97;13.15;;;;;;;;;;5073591;28;20271;-67
2021/11/28 01:02:09;;;;;;;71.32;12.10;;;;;;;;;;5073705;28;20600;-67
2021/11/28 01:04:38;;;;;;;73.28;13.55;;;;;;;;;;5073797;28;20205;-67
2021/11/28 01:07:05;;;;;;;73.30;13.70;;;;;;;;;;5073496;28;20673;-66
2021/11/28 01:09:32;;;;;;;68.38;10.70;;;;;;;;;;5073423;28;20350;-68
2021/11/28 01:11:59;;;;;;;73.53;11.95;;;;;;;;;;5073518;28;20211;-67
2021/11/28 01:14:26;;;;;;;71.85;11.15;;;;;;;;;;5073455;28;20559;-65
2021/11/28 01:16:53;;;;;;;74.20;12.27;;;;;;;;;;5074814;28;20696;-65
2021/11/28 01:19:23;;;;;;;69.53;11.32;;;;;;;;;;5073824;28;20235;-65
2021/11/28 01:21:51;;;;;;;70.45;11.75;;;;;;;;;;5074245;28;20304;-65
2021/11/28 01:24:18;;;;;;;72.05;10.80;;;;;;;;;;5073693;28;20209;-65
2021/11/28 01:26:45;;;;;;;70.47;11.27;;;;;;;;;;5073486;28;20204;-64
2021/11/28 01:29:13;;;;;;;72.57;12.50;;;;;;;;;;5073913;28;20737;-65
2021/11/28 01:31:40;;;;;;;72.75;11.60;;;;;;;;;;5074326;28;20208;-65
2021/11/28 01:34:08;;;;;;;70.78;11.30;;;;;;;;;;5074105;28;20703;-65
2021/11/28 01:36:36;;;;;;;71.10;11.38;;;;;;;;;;5073670;28;20205;-65
2021/11/28 01:39:04;;;;;;;70.15;10.95;;;;;;;;;;5073526;28;20220;-65
2021/11/28 01:41:31;;;;;;;71.20;11.45;;;;;;;;;;5073634;28;20592;-65
2021/11/28 01:43:59;;;;;;;72.50;12.35;;;;;;;;;;5073971;28;20229;-65
2021/11/28 01:46:26;;;;;;;72.07;11.80;;;;;;;;;;5073548;28;20681;-64
2021/11/28 01:48:53;;;;;;;68.38;10.80;;;;;;;;;;5073529;28;20225;-65
2021/11/28 01:51:20;;;;;;;70.32;10.68;;;;;;;;;;5073822;28;20205;-65
2021/11/28 01:53:50;;;;;;;68.93;9.82;;;;;;;;;;5073927;28;20196;-65
2021/11/28 01:56:18;;;;;;;70.95;10.27;;;;;;;;;;5073670;28;20304;-65
2021/11/28 01:58:45;;;;;;;69.15;10.60;;;;;;;;;;5073401;28;20225;-65
2021/11/28 02:01:13;;;;;;;70.47;10.77;;;;;;;;;;5073348;28;20238;-65
2021/11/28 02:03:41;;;;;;;70.20;11.07;;;;;;;;;;5073548;28;20220;-65
2021/11/28 02:06:09;;;;;;;69.80;11.10;;;;;;;;;;5073580;28;20204;-64
2021/11/28 02:08:36;;;;;;;70.45;11.10;;;;;;;;;;5073192;28;20233;-65
2021/11/28 02:11:05;;;;;;;79.32;13.35;;;;;;;;;;5073665;28;20579;-65
2021/11/28 02:13:32;;;;;;;69.95;11.65;;;;;;;;;;5073398;28;20211;-65
2021/11/28 02:16:00;;;;;;;69.55;10.52;;;;;;;;;;5073286;28;20228;-65
2021/11/28 02:18:27;;;;;;;69.70;12.23;;;;;;;;;;5072896;28;20724;-65
2021/11/28 02:20:57;;;;;;;71.38;11.45;;;;;;;;;;5073180;28;20209;-66
2021/11/28 02:23:24;;;;;;;75.03;12.25;;;;;;;;;;5073330;28;20235;-65
2021/11/28 02:25:56;;;;;;;68.70;10.63;;;;;;;;;;5073311;28;20209;-65
2021/11/28 02:28:23;;;;;;;70.38;11.13;;;;;;;;;;5072963;28;20247;-65
2021/11/28 02:30:51;;;;;;;70.07;11.25;;;;;;;;;;5073613;28;20211;-65
2021/11/28 02:33:18;;;;;;;70.38;11.13;;;;;;;;;;5072097;28;20204;-64
2021/11/28 02:35:45;;;;;;;68.68;11.10;;;;;;;;;;5071640;28;20238;-64
2021/11/28 02:38:14;;;;;;;72.43;12.10;;;;;;;;;;5071931;28;20225;-65
2021/11/28 02:40:42;;;;;;;71.13;10.63;;;;;;;;;;5072114;28;20262;-64
2021/11/28 02:43:09;;;;;;;71.30;11.85;;;;;;;;;;5071900;28;20225;-65
2021/11/28 02:45:37;;;;;;;69.40;11.05;;;;;;;;;;5071973;28;20205;-64
2021/11/28 02:48:05;;;;;;;67.90;10.00;;;;;;;;;;5071597;28;20431;-64
2021/11/28 02:50:32;;;;;;;70.38;11.27;;;;;;;;;;5071941;28;20587;-65
2021/11/28 02:53:01;;;;;;;70.15;10.52;;;;;;;;;;5071807;28;20688;-64
2021/11/28 02:55:30;;;;;;;69.68;11.40;;;;;;;;;;5070453;28;20231;-65
2021/11/28 02:57:59;;;;;;;71.63;10.65;;;;;;;;;;5071391;28;20235;-65
2021/11/28 03:00:26;;;;;;;73.15;11.20;;;;;;;;;;5071764;28;20702;-64
2021/11/28 03:02:54;;;;;;;66.93;10.73;;;;;;;;;;5071674;28;20221;-65
2021/11/28 03:05:21;;;;;;;70.32;11.30;;;;;;;;;;5071758;28;20211;-64
2021/11/28 03:07:48;;;;;;;69.45;10.13;;;;;;;;;;5071340;28;20691;-64
2021/11/28 03:10:33;;;;;;;72.93;11.35;;;;;;;;;;5071625;28;20207;-64
2021/11/28 03:13:00;;;;;;;68.03;9.45;;;;;;;;;;5071788;28;20716;-65
2021/11/28 03:15:28;;;;;;;69.47;10.75;;;;;;;;;;5071745;28;20211;-65
2021/11/28 03:17:55;;;;;;;67.82;10.95;;;;;;;;;;5071376;28;20201;-64
2021/11/28 03:20:22;;;;;;;70.65;10.85;;;;;;;;;;5071623;28;20208;-65
2021/11/28 03:22:50;;;;;;;74.88;10.50;;;;;;;;;;5071437;28;20576;-65
2021/11/28 03:25:18;;;;;;;71.47;11.77;;;;;;;;;;5071435;28;20204;-65
2021/11/28 03:27:46;;;;;;;67.72;10.32;;;;;;;;;;5071298;28;20205;-64
2021/11/28 03:30:15;;;;;;;70.70;11.70;;;;;;;;;;5071569;28;20211;-65
2021/11/28 03:32:42;;;;;;;73.40;12.55;;;;;;;;;;5071856;28;20239;-65
2021/11/28 03:35:10;;;;;;;70.22;10.70;;;;;;;;;;5071253;28;20672;-65
2021/11/28 03:37:37;;;;;;;70.45;10.95;;;;;;;;;;5071019;28;20669;-64
2021/11/28 03:40:06;;;;;;;64.70;9.57;;;;;;;;;;5071576;28;20216;-65
2021/11/28 03:42:33;;;;;;;71.85;11.73;;;;;;;;;;5071364;28;20228;-65
2021/11/28 03:45:03;;;;;;;70.15;10.50;;;;;;;;;;5071348;28;20211;-64
2021/11/28 03:47:30;;;;;;;68.75;10.43;;;;;;;;;;5071107;28;20208;-65
2021/11/28 03:49:57;;;;;;;67.93;9.98;;;;;;;;;;5075066;28;20224;-64
2021/11/28 03:52:24;;;;;;;68.68;10.38;;;;;;;;;;5075010;28;20205;-65
2021/11/28 03:54:51;;;;;;;68.82;10.15;;;;;;;;;;5075059;28;20299;-65
2021/11/28 03:57:18;;;;;;;67.25;10.02;;;;;;;;;;5074803;28;20205;-65
2021/11/28 03:59:46;;;;;;;68.60;10.73;;;;;;;;;;5074783;28;20225;-64
2021/11/28 04:02:14;;;;;;;65.95;9.52;;;;;;;;;;5074762;28;20221;-65
2021/11/28 04:04:41;;;;;;;73.70;10.85;;;;;;;;;;5074516;28;20224;-65
2021/11/28 04:07:08;;;;;;;76.10;11.05;;;;;;;;;;5074601;28;20205;-64
2021/11/28 04:09:35;;;;;;;67.65;9.82;;;;;;;;;;5074800;28;20228;-65
2021/11/28 04:12:03;;;;;;;70.55;12.27;;;;;;;;;;5074796;28;20207;-65
2021/11/28 04:14:30;;;;;;;69.82;10.45;;;;;;;;;;5074679;28;20201;-64
2021/11/28 04:16:57;;;;;;;69.38;10.98;;;;;;;;;;5074486;28;20563;-65
2021/11/28 04:19:25;;;;;;;68.25;10.57;;;;;;;;;;5074344;28;20220;-64
2021/11/28 04:21:52;;;;;;;69.13;10.93;;;;;;;;;;5074689;28;20211;-65
2021/11/28 04:24:20;;;;;;;69.80;10.95;;;;;;;;;;5074542;28;20229;-65
2021/11/28 04:26:47;;;;;;;67.72;11.70;;;;;;;;;;5074422;28;20207;-65
2021/11/28 04:29:17;;;;;;;69.53;11.00;;;;;;;;;;5074117;28;20225;-64
2021/11/28 04:31:46;;;;;;;65.72;9.85;;;;;;;;;;5074216;28;20756;-65
2021/11/28 04:34:13;;;;;;;71.13;11.10;;;;;;;;;;5074223;28;20196;-64
2021/11/28 04:36:41;;;;;;;69.05;11.32;;;;;;;;;;5074009;28;20215;-64
2021/11/28 04:39:09;;;;;;;69.15;10.77;;;;;;;;;;5073832;28;20225;-68
2021/11/28 04:41:36;;;;;;;69.18;10.35;;;;;;;;;;5074163;28;20207;-67
2021/11/28 04:44:03;;;;;;;73.68;12.38;;;;;;;;;;5074213;28;20597;-67
2021/11/28 04:46:30;;;;;;;67.95;10.63;;;;;;;;;;5073937;28;20303;-67
2021/11/28 04:48:59;;;;;;;69.22;10.57;;;;;;;;;;5073841;28;20227;-67
2021/11/28 04:51:26;;;;;;;67.35;10.00;;;;;;;;;;5074161;28;20231;-67
2021/11/28 04:53:55;;;;;;;73.57;10.75;;;;;;;;;;5073838;28;20201;-67
2021/11/28 04:56:22;;;;;;;66.53;9.65;;;;;;;;;;5073854;28;20205;-67
2021/11/28 04:58:49;;;;;;;69.60;10.38;;;;;;;;;;5073223;28;20232;-67
2021/11/28 05:01:16;;;;;;;66.82;9.07;;;;;;;;;;5073898;28;20591;-67
2021/11/28 05:03:43;;;;;;;67.97;9.73;;;;;;;;;;5073768;28;20324;-67
2021/11/28 05:06:10;;;;;;;66.25;8.95;;;;;;;;;;5073605;28;20251;-67
2021/11/28 05:08:37;;;;;;;68.38;10.27;;;;;;;;;;5073415;28;20229;-67
2021/11/28 05:11:06;;;;;;;68.10;10.45;;;;;;;;;;5073645;28;20209;-67
2021/11/28 05:13:33;;;;;;;67.93;10.20;;;;;;;;;;5073742;28;20216;-67
2021/11/28 05:16:00;;;;;;;68.43;10.05;;;;;;;;;;5073389;28;20209;-64
2021/11/28 05:18:27;;;;;;;68.75;10.95;;;;;;;;;;5073231;28;20247;-65
2021/11/28 05:20:54;;;;;;;66.68;9.88;;;;;;;;;;5073449;28;20212;-64
2021/11/28 05:23:21;;;;;;;64.70;8.75;;;;;;;;;;5073301;28;20232;-65
2021/11/28 05:25:49;;;;;;;68.43;11.13;;;;;;;;;;5073124;28;20205;-65
2021/11/28 05:28:17;;;;;;;66.55;9.82;;;;;;;;;;5073088;28;20248;-64
2021/11/28 05:30:45;;;;;;;68.85;9.95;;;;;;;;;;5073245;28;20213;-65
2021/11/28 05:33:12;;;;;;;65.68;9.13;;;;;;;;;;5072998;28;20198;-65
2021/11/28 05:35:39;;;;;;;65.72;9.02;;;;;;;;;;5073183;28;20201;-65
2021/11/28 05:38:06;;;;;;;69.18;11.13;;;;;;;;;;5072729;28;20228;-64
2021/11/28 05:40:33;;;;;;;66.15;9.23;;;;;;;;;;5072895;28;20215;-65
2021/11/28 05:43:00;;;;;;;65.53;9.05;;;;;;;;;;5073070;28;20205;-65
2021/11/28 05:45:29;;;;;;;67.35;9.27;;;;;;;;;;5073021;28;20676;-65
2021/11/28 05:47:56;;;;;;;66.80;9.88;;;;;;;;;;5072572;28;20207;-64
2021/11/28 05:50:24;;;;;;;67.55;9.98;;;;;;;;;;5072828;28;20258;-65
2021/11/28 05:52:51;;;;;;;65.30;9.18;;;;;;;;;;5072623;28;20208;-64
2021/11/28 05:55:19;;;;;;;66.22;9.35;;;;;;;;;;5072564;28;20205;-65
2021/11/28 05:57:46;;;;;;;68.05;8.98;;;;;;;;;;5072456;28;20334;-64
2021/11/28 06:00:14;;;;;;;70.38;10.27;;;;;;;;;;5072703;28;20200;-64
2021/11/28 06:02:43;;;;;;;67.55;9.55;;;;;;;;;;5072445;28;20221;-65
2021/11/28 06:05:11;;;;;;;67.00;10.00;;;;;;;;;;5072435;28;20229;-65
2021/11/28 06:07:38;;;;;;;70.18;10.35;;;;;;;;;;5072143;28;20215;-65
2021/11/28 06:10:06;;;;;;;65.85;10.73;;;;;;;;;;5072667;28;20201;-67
2021/11/28 06:12:34;;;;;;;67.35;9.85;;;;;;;;;;5072038;28;20200;-67
2021/11/28 06:15:01;;;;;;;67.40;9.13;;;;;;;;;;5072368;28;20231;-64
2021/11/28 06:17:28;;;;;;;64.85;9.18;;;;;;;;;;5072047;28;20204;-65
2021/11/28 06:19:57;;;;;;;67.30;10.07;;;;;;;;;;5072153;28;20221;-64
2021/11/28 06:22:24;;;;;;;68.13;9.07;;;;;;;;;;5072214;28;20212;-64
2021/11/28 06:24:51;;;;;;;63.97;8.73;;;;;;;;;;5072214;28;20235;-64
2021/11/28 06:27:19;;;;;;;71.22;11.43;;;;;;;;;;5071974;28;20207;-65
2021/11/28 06:29:47;;;;;;;77.75;12.90;;;;;;;;;;5072040;28;20267;-64
2021/11/28 06:32:14;;;;;;;68.43;11.50;;;;;;;;;;5072063;28;20254;-65
2021/11/28 06:34:41;;;;;;;67.03;9.13;;;;;;;;;;5071960;28;20512;-65
2021/11/28 06:37:10;;;;;;;73.63;11.38;;;;;;;;;;5072112;28;20211;-65
2021/11/28 06:39:37;;;;;;;73.22;11.52;;;;;;;;;;5072139;28;20229;-65
2021/11/28 06:42:04;;;;;;;68.65;10.95;;;;;;;;;;5072128;28;20227;-64
2021/11/28 06:44:31;;;;;;;72.65;10.45;;;;;;;;;;5071890;28;20225;-65
2021/11/28 06:46:58;;;;;;;65.25;8.82;;;;;;;;;;5071812;28;20209;-65
2021/11/28 06:49:27;;;;;;;67.80;10.18;;;;;;;;;;5071810;28;20237;-66
2021/11/28 06:51:54;;;;;;;67.30;9.50;;;;;;;;;;5072075;28;20208;-66
2021/11/28 06:54:22;;;;;;;68.57;10.10;;;;;;;;;;5071984;28;20300;-67
2021/11/28 06:56:50;;;;;;;67.43;9.75;;;;;;;;;;5071921;28;20208;-67
2021/11/28 06:59:17;;;;;;;66.30;9.30;;;;;;;;;;5071480;28;20224;-67
2021/11/28 07:01:44;;;;;;;66.78;10.27;;;;;;;;;;5071567;28;20266;-67
2021/11/28 07:04:12;;;;;;;73.05;10.60;;;;;;;;;;5071656;28;20730;-68
2021/11/28 07:06:39;;;;;;;67.50;9.45;;;;;;;;;;5071876;28;20201;-67
2021/11/28 07:09:06;;;;;;;66.53;9.30;;;;;;;;;;5071433;28;20225;-67
2021/11/28 07:11:35;;;;;;;77.07;10.90;;;;;;;;;;5071792;28;20204;-67
2021/11/28 07:14:02;;;;;;;70.20;10.75;;;;;;;;;;5071574;28;20665;-67
2021/11/28 07:16:29;;;;;;;66.55;9.18;;;;;;;;;;5071718;28;20211;-67
2021/11/28 07:18:56;;;;;;;83.50;12.23;;;;;;;;;;5071270;28;20229;-67
2021/11/28 07:21:23;;;;;;;75.43;12.55;;;;;;;;;;5071771;28;20241;-67
2021/11/28 07:23:51;;;;;;;69.68;10.82;;;;;;;;;;5073463;28;20608;-67
2021/11/28 07:26:19;;;;;;;68.88;10.30;;;;;;;;;;5075473;28;20205;-67
2021/11/28 07:28:47;;;;;;;65.68;9.43;;;;;;;;;;5075127;28;20585;-67
2021/11/28 07:31:14;;;;;;;70.38;10.50;;;;;;;;;;5075722;28;20208;-67
2021/11/28 07:33:42;;;;;;;69.22;11.05;;;;;;;;;;5075604;28;20588;-67
2021/11/28 07:36:09;;;;;;;72.47;11.07;;;;;;;;;;5075453;28;20227;-64
2021/11/28 07:38:38;;;;;;;69.35;10.43;;;;;;;;;;5075090;28;20224;-65
2021/11/28 07:41:05;;;;;;;67.25;9.55;;;;;;;;;;5075260;28;20383;-64
2021/11/28 07:43:33;;;;;;;65.63;9.63;;;;;;;;;;5075117;28;20200;-65
2021/11/28 07:46:02;;;;;;;68.07;10.65;;;;;;;;;;5075390;28;20211;-64
2021/11/28 07:48:29;;;;;;;66.00;9.30;;;;;;;;;;5074960;28;20645;-64
2021/11/28 07:50:58;;;;;;;66.43;9.90;;;;;;;;;;5075245;28;20205;-65
2021/11/28 07:53:25;;;;;;;69.57;10.73;;;;;;;;;;5075529;28;20205;-67
2021/11/28 07:55:52;;;;;;;71.03;11.50;;;;;;;;;;5074879;28;20274;-67
2021/11/28 07:58:19;;;;;;;72.28;10.25;;;;;;;;;;5074607;28;20228;-66
2021/11/28 08:00:46;;;;;;;67.57;10.50;;;;;;;;;;5074874;28;20676;-68
2021/11/28 08:03:16;;;;;;;65.32;9.52;;;;;;;;;;5075045;28;20201;-67
2021/11/28 08:05:43;;;;;;;68.15;9.68;;;;;;;;;;5074690;28;20274;-67
2021/11/28 08:08:11;;;;;;;69.20;10.70;;;;;;;;;;5074452;28;20248;-67
2021/11/28 08:10:38;;;;;;;68.75;10.85;;;;;;;;;;5074666;28;20213;-68
2021/11/28 08:13:06;;;;;;;69.50;10.80;;;;;;;;;;5074886;28;20586;-68
2021/11/28 08:15:33;;;;;;;66.40;9.27;;;;;;;;;;5074556;28;20210;-67
2021/11/28 08:18:00;;;;;;;68.30;9.73;;;;;;;;;;5074420;28;20224;-67
2021/11/28 08:20:28;;;;;;;68.20;10.30;;;;;;;;;;5074626;28;20205;-66
2021/11/28 08:22:55;;;;;;;72.65;13.05;;;;;;;;;;5074459;28;20211;-65
2021/11/28 08:25:22;;;;;;;68.45;11.05;;;;;;;;;;5074323;28;20228;-65
2021/11/28 08:27:50;;;;;;;66.43;9.40;;;;;;;;;;5074267;28;20212;-65
2021/11/28 08:30:17;;;;;;;67.13;9.48;;;;;;;;;;5074432;28;20209;-64
2021/11/28 08:32:45;;;;;;;65.43;9.38;;;;;;;;;;5074391;28;20216;-64
2021/11/28 08:35:13;;;;;;;67.65;10.13;;;;;;;;;;5073782;28;20599;-65
2021/11/28 08:37:41;;;;;;;71.22;9.30;;;;;;;;;;5073771;28;20204;-65
2021/11/28 08:40:09;;;;;;;65.53;8.80;;;;;;;;;;5074414;28;20223;-65
2021/11/28 08:42:36;;;;;;;66.68;9.48;;;;;;;;;;5074274;28;20201;-65
2021/11/28 08:45:05;;;;;;;67.68;10.73;;;;;;;;;;5074045;28;20599;-65
2021/11/28 08:47:32;;;;;;;67.53;10.25;;;;;;;;;;5073797;28;20220;-65
2021/11/28 08:49:59;;;;;;;67.22;9.15;;;;;;;;;;5073886;28;20224;-65
2021/11/28 08:52:26;;;;;;;68.22;9.77;;;;;;;;;;5074258;28;20578;-65
2021/11/28 08:54:55;;;;;;;64.68;8.82;;;;;;;;;;5074150;28;20228;-64
2021/11/28 08:57:22;;;;;;;64.78;8.65;;;;;;;;;;5073675;28;20587;-65
2021/11/28 08:59:49;;;;;;;65.65;8.35;;;;;;;;;;5073712;28;20233;-64
2021/11/28 09:02:17;;;;;;;64.07;8.00;;;;;;;;;;5073624;28;20217;-65
2021/11/28 09:04:44;;;;;;;65.85;9.25;;;;;;;;;;5073516;28;20707;-65
2021/11/28 09:07:11;;;;;;;65.78;9.20;;;;;;;;;;5073569;28;20628;-65
2021/11/28 09:09:39;;;;;;;66.88;9.27;;;;;;;;;;5073593;28;20716;-66
2021/11/28 09:12:08;;;;;;;64.70;8.40;;;;;;;;;;5073701;28;20261;-66
2021/11/28 09:14:35;;;;;;;66.53;8.55;;;;;;;;;;5073449;28;20205;-65
2021/11/28 09:17:03;;;;;;;66.15;9.50;;;;;;;;;;5073293;28;20211;-65
2021/11/28 09:19:36;;;;;;;66.82;9.23;;;;;;;;;;5073423;28;20669;-65
2021/11/28 09:22:05;;;;;;;66.25;9.48;;;;;;;;;;5073352;28;20213;-65
2021/11/28 09:24:38;;;;;;;68.05;9.50;;;;;;;;;;5073349;28;20237;-65
2021/11/28 09:27:09;;;;;;;67.50;9.27;;;;;;;;;;5073521;28;20201;-65
2021/11/28 09:29:38;;;;;;;66.95;9.70;;;;;;;;;;5073161;28;20235;-65
2021/11/28 09:32:05;;;;;;;67.78;9.88;;;;;;;;;;5073351;28;20587;-65
2021/11/28 09:34:32;;;;;;;65.75;9.00;;;;;;;;;;5073246;28;20207;-65
2021/11/28 09:36:59;;;;;;;64.85;9.25;;;;;;;;;;5073082;28;20205;-66
2021/11/28 09:39:27;;;;;;;65.95;9.30;;;;;;;;;;5072869;28;20263;-66
2021/11/28 09:41:58;;;;;;;66.60;9.27;;;;;;;;;;5073048;28;20204;-65
2021/11/28 09:44:28;;;;;;;67.82;9.60;;;;;;;;;;5073188;28;20282;-66
2021/11/28 09:46:55;;;;;;;66.60;9.50;;;;;;;;;;5072366;28;20212;-65
2021/11/28 09:49:25;;;;;;;69.85;9.57;;;;;;;;;;5072648;28;20229;-65
2021/11/28 09:51:53;;;;;;;68.88;9.90;;;;;;;;;;5073103;28;20219;-65
2021/11/28 09:54:21;;;;;;;68.25;9.50;;;;;;;;;;5072871;28;20212;-65
2021/11/28 09:56:48;;;;;;;70.35;9.43;;;;;;;;;;5073040;28;20213;-65
2021/11/28 09:59:17;;;;;;;64.40;9.02;;;;;;;;;;5072540;28;20239;-65
2021/11/28 10:01:45;;;;;;;69.57;10.00;;;;;;;;;;5072430;28;20256;-65
2021/11/28 10:04:12;;;;;;;80.82;12.95;;;;;;;;;;5072730;28;20239;-65
2021/11/28 10:06:39;;;;;;;72.88;12.05;;;;;;;;;;5072419;28;20235;-66
2021/11/28 10:09:07;;;;;;;74.25;12.32;;;;;;;;;;5072124;28;20225;-65
2021/11/28 10:11:53;;;;;;;68.38;9.90;;;;;;;;;;5072638;28;20201;-66
2021/11/28 10:14:20;;;;;;;64.95;8.80;;;;;;;;;;5072551;28;20211;-66
2021/11/28 10:16:50;;;;;;;75.13;11.18;;;;;;;;;;5072318;28;20227;-65
2021/11/28 10:19:17;;;;;;;66.70;9.57;;;;;;;;;;5072035;28;20603;-66
2021/11/28 10:21:44;;;;;;;69.70;11.60;;;;;;;;;;5072172;28;20207;-65
2021/11/28 10:24:12;;;;;;;68.03;10.35;;;;;;;;;;5072297;28;20211;-65
2021/11/28 10:26:53;;;;;;;67.30;10.32;;;;;;;;;;5072157;28;20251;-65
2021/11/28 10:29:21;;;;;;;70.35;9.43;;;;;;;;;;5071948;28;20228;-65
2021/11/28 10:31:51;;;;;;;71.35;10.93;;;;;;;;;;5072139;28;20207;-65
2021/11/28 10:34:20;;;;;;;66.10;8.63;;;;;;;;;;5072040;28;20567;-66
2021/11/28 10:36:48;;;;;;;72.78;10.05;;;;;;;;;;5072208;28;20583;-66
2021/11/28 10:39:16;;;;;;;66.80;9.77;;;;;;;;;;5071823;28;20272;-65
2021/11/28 10:41:49;;;;;;;82.40;15.90;;;;;;;;;;5071946;28;20207;-65
2021/11/28 10:44:16;;;;;;;67.07;9.73;;;;;;;;;;5071973;28;20212;-64
2021/11/28 10:46:43;;;;;;;66.15;9.90;;;;;;;;;;5071728;28;20439;-65
2021/11/28 10:49:13;;;;;;;65.30;8.45;;;;;;;;;;5071760;28;20603;-65
2021/11/28 10:51:41;;;;;;;64.05;8.52;;;;;;;;;;5071972;28;20223;-65
2021/11/28 10:54:28;;;;;;;67.25;9.20;;;;;;;;;;5071909;28;20235;-66
2021/11/28 10:57:15;;;;;;;65.75;8.77;;;;;;;;;;5071548;28;20240;-65
2021/11/28 10:59:43;;;;;;;66.03;8.75;;;;;;;;;;5071684;28;20229;-65
2021/11/28 11:02:20;;;;;;;67.80;9.23;;;;;;;;;;5071631;28;20216;-65
2021/11/28 11:04:49;;;;;;;69.93;8.55;;;;;;;;;;5071634;28;20676;-65
2021/11/28 11:07:17;;;;;;;66.65;9.55;;;;;;;;;;5071581;28;20211;-65
2021/11/28 11:09:45;;;;;;;64.85;8.50;;;;;;;;;;5071429;28;20229;-65
2021/11/28 11:12:22;;;;;;;67.60;9.75;;;;;;;;;;5071912;28;20677;-65
2021/11/28 11:14:50;;;;;;;65.85;10.05;;;;;;;;;;5071686;28;20235;-65
2021/11/28 11:17:17;;;;;;;65.78;8.43;;;;;;;;;;5071311;28;20213;-65
2021/11/28 11:19:48;;;;;;;69.28;7.25;;;;;;;;;;5071623;28;20229;-65
2021/11/28 11:22:19;;;;;;;67.65;8.95;;;;;;;;;;5071490;28;20665;-65
2021/11/28 11:24:51;;;;;;;69.72;10.50;;;;;;;;;;5071439;28;20573;-65
2021/11/28 11:27:19;;;;;;;89.53;16.52;;;;;;;;;;5071136;28;20213;-65
2021/11/28 11:29:49;;;;;;;70.38;11.40;;;;;;;;;;5071297;28;20252;-65
2021/11/28 11:32:16;;;;;;;69.38;10.10;;;;;;;;;;5071472;28;20208;-65
2021/11/28 11:34:49;;;;;;;67.43;9.77;;;;;;;;;;5071371;28;20213;-65
2021/11/28 11:37:18;;;;;;;65.05;8.50;;;;;;;;;;5071388;28;20205;-65
2021/11/28 11:39:47;;;;;;;66.28;9.32;;;;;;;;;;5071253;28;20252;-65
2021/11/28 11:42:15;;;;;;;64.75;8.45;;;;;;;;;;5071448;28;20572;-65
2021/11/28 11:44:44;;;;;;;67.68;9.40;;;;;;;;;;5071237;28;20213;-65
2021/11/28 11:47:11;;;;;;;67.72;9.93;;;;;;;;;;5070882;28;20268;-64
2021/11/28 11:49:39;;;;;;;68.13;9.48;;;;;;;;;;5071533;28;20232;-65
2021/11/28 11:52:07;;;;;;;66.82;9.40;;;;;;;;;;5071303;28;20714;-65
2021/11/28 11:54:41;;;;;;;63.03;8.27;;;;;;;;;;5071375;28;20205;-65
2021/11/28 11:57:10;;;;;;;64.25;7.65;;;;;;;;;;5071293;28;20200;-65
2021/11/28 11:59:40;;;;;;;63.78;8.60;;;;;;;;;;5071060;28;20229;-65
2021/11/28 12:02:08;;;;;;;64.57;8.48;;;;;;;;;;5071047;28;20220;-65
2021/11/28 12:04:42;;;;;;;63.70;7.93;;;;;;;;;;5071334;28;20209;-65
2021/11/28 12:07:09;;;;;;;66.22;8.55;;;;;;;;;;5071067;28;20235;-65
2021/11/28 12:09:38;;;;;;;64.97;8.60;;;;;;;;;;5072485;28;20245;-65
2021/11/28 12:12:07;;;;;;;64.05;7.55;;;;;;;;;;5074618;28;20712;-66
2021/11/28 12:14:34;;;;;;;62.80;7.30;;;;;;;;;;5074869;28;20204;-65
2021/11/28 12:17:01;;;;;;;66.20;7.47;;;;;;;;;;5074715;28;20201;-65
2021/11/28 12:19:38;;;;;;;64.38;7.15;;;;;;;;;;5074391;28;20225;-65
2021/11/28 12:22:06;;;;;;;67.00;8.68;;;;;;;;;;5074582;28;20204;-65
2021/11/28 12:24:33;;;;;;;62.83;7.35;;;;;;;;;;5074428;28;20244;-65
2021/11/28 12:27:03;;;;;;;63.65;6.22;;;;;;;;;;5074272;28;20232;-65
2021/11/28 12:29:31;;;;;;;66.25;7.57;;;;;;;;;;5074489;28;20229;-65
2021/11/28 12:31:59;;;;;;;64.72;8.55;;;;;;;;;;5074586;28;20212;-66
2021/11/28 12:34:26;;;;;;;63.33;7.63;;;;;;;;;;5074380;28;20202;-66
2021/11/28 12:36:55;;;;;;;64.43;7.70;;;;;;;;;;5074138;28;20205;-65
2021/11/28 12:39:39;;;;;;;62.78;7.75;;;;;;;;;;5074096;28;20258;-66
2021/11/28 12:42:09;;;;;;;65.10;7.60;;;;;;;;;;5074122;28;20760;-66
2021/11/28 12:44:37;;;;;;;63.78;7.45;;;;;;;;;;5074377;28;20235;-65
2021/11/28 12:47:19;;;;;;;65.47;8.07;;;;;;;;;;5074037;28;20229;-66
2021/11/28 12:49:48;;;;;;;64.45;7.90;;;;;;;;;;5073971;28;20239;-66
2021/11/28 12:52:45;;;;;;;63.10;7.80;;;;;;;;;;5074151;28;20204;-65
2021/11/28 12:55:20;;;;;;;63.08;8.00;;;;;;;;;;5011958;28;20304;-66
2021/11/28 12:58:04;;;;;;;67.22;8.88;;;;;;;;;;5062373;28;20557;-65
2021/11/28 13:00:32;;;;;;;63.55;7.97;;;;;;;;;;5073823;28;20209;-65
2021/11/28 13:03:01;;;;;;;66.05;9.05;;;;;;;;;;5073710;28;20215;-65
2021/11/28 13:05:35;;;;;;;67.78;10.55;;;;;;;;;;5073704;28;20213;-65
2021/11/28 13:08:21;;;;;;;66.22;8.75;;;;;;;;;;5073360;28;20266;-65
2021/11/28 13:10:49;;;;;;;63.58;8.30;;;;;;;;;;5073844;28;20262;-66
2021/11/28 13:13:19;;;;;;;63.38;8.10;;;;;;;;;;5073890;28;20204;-65
2021/11/28 13:15:47;;;;;;;65.57;9.20;;;;;;;;;;5073444;28;20201;-66
2021/11/28 13:18:16;;;;;;;67.00;8.20;;;;;;;;;;5073292;28;20224;-65
2021/11/28 13:20:43;;;;;;;63.72;8.60;;;;;;;;;;5073376;28;20790;-65
2021/11/28 13:23:11;;;;;;;63.20;7.95;;;;;;;;;;5073575;28;20212;-65
2021/11/28 13:25:40;;;;;;;68.47;8.07;;;;;;;;;;5073154;28;20231;-65
2021/11/28 13:28:10;;;;;;;66.30;8.38;;;;;;;;;;5073121;28;20323;-65
2021/11/28 13:30:40;;;;;;;63.83;8.05;;;;;;;;;;5073320;28;20580;-65
2021/11/28 13:33:08;;;;;;;65.20;8.82;;;;;;;;;;5073146;28;20205;-65
2021/11/28 13:35:37;;;;;;;67.32;8.60;;;;;;;;;;5072923;28;20584;-65
2021/11/28 13:38:14;;;;;;;65.03;8.75;;;;;;;;;;5072976;28;20225;-66
2021/11/28 13:40:41;;;;;;;63.47;8.55;;;;;;;;;;5073135;28;20205;-65
2021/11/28 13:43:08;;;;;;;65.55;9.13;;;;;;;;;;5073047;28;20228;-65
2021/11/28 13:45:35;;;;;;;65.78;8.60;;;;;;;;;;5072866;28;20209;-65
2021/11/28 13:48:04;;;;;;;65.72;8.23;;;;;;;;;;5072428;28;20728;-65
2021/11/28 13:50:31;;;;;;;64.03;7.97;;;;;;;;;;5072934;28;20205;-65
2021/11/28 13:53:13;;;;;;;63.92;7.82;;;;;;;;;;5072726;28;20201;-66
2021/11/28 13:55:51;;;;;;;67.00;8.18;;;;;;;;;;5072696;28;20192;-65
2021/11/28 13:58:22;;;;;;;63.25;7.25;;;;;;;;;;5072367;28;20232;-65
2021/11/28 14:00:49;;;;;;;64.32;8.05;;;;;;;;;;5072641;28;20230;-66
2021/11/28 14:03:18;;;;;;;64.80;7.15;;;;;;;;;;5073103;28;20230;-65
2021/11/28 14:05:45;;;;;;;63.60;7.30;;;;;;;;;;5072471;28;20205;-65
2021/11/28 14:08:12;;;;;;;64.05;7.43;;;;;;;;;;5072227;28;20595;-66
2021/11/28 14:10:40;;;;;;;63.00;7.45;;;;;;;;;;5072412;28;20201;-65
2021/11/28 14:13:07;;;;;;;63.63;6.50;;;;;;;;;;5072586;28;20322;-65
2021/11/28 14:15:38;;;;;;;61.17;6.38;;;;;;;;;;5072238;28;20205;-66
2021/11/28 14:18:06;;;;;;;62.42;6.43;;;;;;;;;;5072173;28;20225;-65
2021/11/28 14:20:36;;;;;;;63.05;6.70;;;;;;;;;;5072210;28;20216;-65
2021/11/28 14:23:04;;;;;;;64.05;6.60;;;;;;;;;;5072290;28;20300;-65
2021/11/28 14:25:33;;;;;;;64.57;8.52;;;;;;;;;;5071929;28;20211;-65
2021/11/28 14:28:07;;;;;;;68.32;9.07;;;;;;;;;;5071709;28;20229;-65
2021/11/28 14:30:35;;;;;;;65.85;7.55;;;;;;;;;;5072139;28;20205;-66